createdAt,value
2017-11-04T00:00:17.550Z,9.56
2017-11-04T00:01:26.892Z,9.65
2017-11-04T00:02:36.572Z,9.67
2017-11-04T00:03:46.269Z,9.67
2017-11-04T00:04:56.314Z,9.65
2017-11-04T00:06:06.370Z,9.71
2017-11-04T00:07:16.047Z,9.67
2017-11-04T00:08:25.737Z,9.6
2017-11-04T00:09:36.077Z,9.68
2017-11-04T00:10:45.802Z,9.7
2017-11-04T00:11:55.871Z,9.71
2017-11-04T00:13:05.850Z,9.63
2017-11-04T00:14:15.870Z,9.7
2017-11-04T00:15:25.933Z,9.65
2017-11-04T00:16:35.611Z,9.73
2017-11-04T00:17:45.963Z,9.62
2017-11-04T00:18:56.318Z,9.67
2017-11-04T00:20:06.333Z,9.71
2017-11-04T00:21:15.671Z,9.71
2017-11-04T00:22:25.682Z,9.68
2017-11-04T00:23:35.699Z,9.68
2017-11-04T00:24:45.079Z,9.65
2017-11-04T00:25:54.755Z,9.59
2017-11-04T00:27:04.094Z,9.53
2017-11-04T00:28:13.772Z,9.65
2017-11-04T00:29:24.126Z,9.73
2017-11-04T00:30:34.146Z,9.55
2017-11-04T00:31:44.174Z,9.58
2017-11-04T00:32:54.186Z,9.55
2017-11-04T00:34:04.534Z,9.59
2017-11-04T00:35:13.875Z,9.56
2017-11-04T00:36:23.544Z,9.53
2017-11-04T00:37:33.558Z,9.58
2017-11-04T00:38:43.901Z,9.55
2017-11-04T00:39:53.239Z,9.49
2017-11-04T00:41:02.585Z,9.48
2017-11-04T00:42:12.590Z,9.5
2017-11-04T00:43:22.285Z,9.5
2017-11-04T00:44:31.971Z,9.53
2017-11-04T00:45:41.322Z,9.48
2017-11-04T00:46:50.994Z,9.5
2017-11-04T00:48:01.015Z,9.45
2017-11-04T00:49:10.689Z,9.42
2017-11-04T00:50:21.031Z,9.42
2017-11-04T00:51:31.041Z,9.5
2017-11-04T00:52:41.045Z,9.48
2017-11-04T00:53:50.049Z,9.42
2017-11-04T00:55:00.057Z,9.52
2017-11-04T00:56:10.421Z,9.49
2017-11-04T00:57:20.093Z,9.44
2017-11-04T00:58:29.101Z,9.44
2017-11-04T00:59:39.233Z,9.44
2017-11-04T01:00:49.600Z,9.49
2017-11-04T01:01:59.280Z,9.56
2017-11-04T01:03:09.410Z,9.44
2017-11-04T01:04:19.425Z,9.42
2017-11-04T01:05:29.111Z,9.49
2017-11-04T01:06:39.464Z,9.49
2017-11-04T01:07:49.147Z,9.41
2017-11-04T01:08:58.495Z,9.49
2017-11-04T01:10:07.829Z,9.52
2017-11-04T01:11:17.511Z,9.55
2017-11-04T01:12:27.190Z,9.55
2017-11-04T01:13:36.543Z,9.52
2017-11-04T01:14:45.892Z,9.53
2017-11-04T01:15:56.241Z,9.49
2017-11-04T01:17:06.254Z,9.5
2017-11-04T01:18:16.271Z,9.59
2017-11-04T01:19:26.293Z,9.56
2017-11-04T01:20:35.631Z,9.49
2017-11-04T01:21:45.302Z,9.48
2017-11-04T01:22:55.068Z,9.52
2017-11-04T01:24:05.184Z,9.58
2017-11-04T01:25:14.537Z,9.58
2017-11-04T01:26:23.870Z,9.53
2017-11-04T01:27:33.892Z,9.58
2017-11-04T01:28:43.561Z,9.56
2017-11-04T01:29:53.901Z,9.58
2017-11-04T01:31:03.922Z,9.53
2017-11-04T01:32:13.936Z,9.52
2017-11-04T01:33:23.945Z,9.56
2017-11-04T01:34:33.618Z,9.58
2017-11-04T01:35:43.623Z,9.55
2017-11-04T01:36:53.627Z,9.56
2017-11-04T01:38:03.637Z,9.62
2017-11-04T01:39:13.981Z,9.56
2017-11-04T01:40:23.654Z,9.56
2017-11-04T01:41:32.995Z,9.59
2017-11-04T01:42:42.325Z,9.55
2017-11-04T01:43:52.664Z,9.53
2017-11-04T01:45:02.673Z,9.58
2017-11-04T01:46:12.346Z,9.48
2017-11-04T01:47:21.690Z,9.52
2017-11-04T01:48:32.030Z,9.56
2017-11-04T01:49:41.707Z,9.53
2017-11-04T01:50:51.383Z,9.53
2017-11-04T01:52:01.058Z,9.55
2017-11-04T01:53:10.740Z,9.52
2017-11-04T01:54:20.413Z,9.59
2017-11-04T01:55:29.414Z,9.6
2017-11-04T01:56:38.750Z,9.53
2017-11-04T01:57:49.092Z,9.55
2017-11-04T01:58:59.100Z,9.53
2017-11-04T02:00:09.450Z,9.56
2017-11-04T02:01:19.465Z,9.56
2017-11-04T02:02:29.228Z,9.49
2017-11-04T02:03:39.300Z,9.58
2017-11-04T02:04:49.315Z,9.5
2017-11-04T02:05:58.992Z,9.52
2017-11-04T02:07:08.677Z,9.5
2017-11-04T02:08:18.368Z,9.49
2017-11-04T02:09:28.710Z,9.5
2017-11-04T02:10:38.722Z,9.5
2017-11-04T02:11:48.404Z,9.49
2017-11-04T02:12:58.419Z,9.52
2017-11-04T02:14:07.757Z,9.45
2017-11-04T02:15:17.788Z,9.5
2017-11-04T02:16:28.244Z,9.42
2017-11-04T02:17:38.579Z,9.49
2017-11-04T02:18:47.920Z,9.44
2017-11-04T02:19:58.297Z,9.4
2017-11-04T02:21:07.636Z,9.4
2017-11-04T02:22:16.981Z,9.41
2017-11-04T02:23:26.995Z,9.42
2017-11-04T02:24:36.668Z,9.37
2017-11-04T02:25:46.352Z,9.27
2017-11-04T02:26:55.691Z,9.34
2017-11-04T02:28:06.074Z,9.37
2017-11-04T02:29:16.099Z,9.45
2017-11-04T02:30:26.176Z,9.41
2017-11-04T02:31:35.860Z,9.32
2017-11-04T02:32:45.242Z,9.3
2017-11-04T02:33:55.251Z,9.27
2017-11-04T02:35:04.923Z,9.27
2017-11-04T02:36:14.952Z,9.35
2017-11-04T02:37:24.301Z,9.38
2017-11-04T02:38:34.070Z,9.41
2017-11-04T02:40:41.857Z,9.37
2017-11-04T02:41:51.324Z,9.4
2017-11-04T02:43:01.688Z,9.38
2017-11-04T02:44:11.709Z,9.4
2017-11-04T02:45:22.076Z,9.4
2017-11-04T02:46:31.762Z,9.37
2017-11-04T02:47:41.793Z,9.49
2017-11-04T02:48:52.157Z,9.41
2017-11-04T02:50:02.510Z,9.3
2017-11-04T02:51:12.212Z,9.4
2017-11-04T02:52:22.234Z,9.3
2017-11-04T02:53:32.246Z,9.42
2017-11-04T02:54:42.273Z,9.32
2017-11-04T02:55:51.271Z,9.37
2017-11-04T02:57:01.311Z,9.38
2017-11-04T02:58:11.332Z,9.37
2017-11-04T02:59:21.340Z,9.32
2017-11-04T03:00:31.369Z,9.35
2017-11-04T03:01:41.730Z,9.34
2017-11-04T03:02:51.743Z,9.31
2017-11-04T03:04:01.087Z,9.38
2017-11-04T03:05:11.122Z,9.37
2017-11-04T03:06:20.797Z,9.38
2017-11-04T03:07:30.478Z,9.3
2017-11-04T03:08:40.152Z,9.38
2017-11-04T03:09:50.158Z,9.31
2017-11-04T03:11:00.186Z,9.35
2017-11-04T03:12:09.531Z,9.32
2017-11-04T03:13:19.889Z,9.38
2017-11-04T03:14:29.232Z,9.3
2017-11-04T03:15:39.254Z,9.3
2017-11-04T03:16:48.934Z,9.41
2017-11-04T03:17:58.277Z,9.37
2017-11-04T03:19:07.955Z,9.34
2017-11-04T03:20:18.336Z,9.27
2017-11-04T03:21:28.428Z,9.41
2017-11-04T03:22:38.798Z,9.31
2017-11-04T03:23:48.473Z,9.44
2017-11-04T03:24:58.159Z,9.26
2017-11-04T03:26:07.825Z,9.3
2017-11-04T03:27:16.838Z,9.3
2017-11-04T03:28:27.190Z,9.38
2017-11-04T03:29:36.873Z,9.35
2017-11-04T03:30:47.220Z,9.34
2017-11-04T03:31:57.579Z,9.34
2017-11-04T03:33:07.606Z,9.42
2017-11-04T03:34:17.296Z,9.41
2017-11-04T03:35:27.656Z,9.35
2017-11-04T03:36:36.992Z,9.3
2017-11-04T03:37:47.345Z,9.42
2017-11-04T03:38:56.350Z,9.31
2017-11-04T03:40:06.719Z,9.3
2017-11-04T03:41:16.762Z,9.3
2017-11-04T03:42:26.098Z,9.37
2017-11-04T03:43:36.133Z,9.34
2017-11-04T03:44:46.495Z,9.35
2017-11-04T03:45:56.884Z,9.32
2017-11-04T03:47:06.229Z,9.49
2017-11-04T03:48:16.588Z,9.44
2017-11-04T03:49:26.614Z,9.49
2017-11-04T03:50:36.292Z,9.45
2017-11-04T03:51:46.303Z,9.44
2017-11-04T03:52:55.650Z,9.44
2017-11-04T03:54:05.342Z,9.5
2017-11-04T03:55:15.379Z,9.44
2017-11-04T03:56:25.061Z,9.41
2017-11-04T03:57:35.410Z,9.41
2017-11-04T03:58:45.786Z,9.44
2017-11-04T03:59:55.462Z,9.41
2017-11-04T04:01:05.529Z,9.44
2017-11-04T04:02:15.565Z,9.48
2017-11-04T04:03:25.626Z,9.41
2017-11-04T04:04:35.299Z,9.44
2017-11-04T04:05:45.322Z,9.41
2017-11-04T04:06:55.687Z,9.44
2017-11-04T04:08:05.700Z,9.44
2017-11-04T04:09:14.726Z,9.44
2017-11-04T04:10:25.100Z,9.5
2017-11-04T04:11:34.445Z,9.42
2017-11-04T04:12:44.788Z,9.5
2017-11-04T04:13:54.139Z,9.5
2017-11-04T04:15:04.539Z,9.49
2017-11-04T04:16:14.220Z,9.5
2017-11-04T04:17:24.251Z,9.41
2017-11-04T04:18:34.275Z,9.41
2017-11-04T04:19:44.633Z,9.44
2017-11-04T04:20:54.310Z,9.44
2017-11-04T04:22:03.649Z,9.4
2017-11-04T04:23:12.988Z,9.49
2017-11-04T04:24:22.672Z,9.45
2017-11-04T04:25:32.030Z,9.45
2017-11-04T04:26:42.061Z,9.49
2017-11-04T04:27:51.739Z,9.45
2017-11-04T04:29:01.424Z,9.42
2017-11-04T04:30:11.429Z,9.44
2017-11-04T04:31:21.446Z,9.4
2017-11-04T04:32:31.116Z,9.49
2017-11-04T04:33:40.467Z,9.49
2017-11-04T04:34:50.502Z,9.42
2017-11-04T04:35:59.890Z,9.44
2017-11-04T04:37:08.931Z,9.44
2017-11-04T04:38:18.942Z,9.49
2017-11-04T04:39:28.970Z,9.37
2017-11-04T04:40:38.325Z,9.5
2017-11-04T04:41:48.359Z,9.49
2017-11-04T04:42:58.036Z,9.44
2017-11-04T04:44:08.065Z,9.5
2017-11-04T04:45:18.088Z,9.45
2017-11-04T04:46:28.111Z,9.48
2017-11-04T04:47:37.466Z,9.42
2017-11-04T04:48:47.151Z,9.45
2017-11-04T04:49:57.161Z,9.49
2017-11-04T04:51:07.193Z,9.49
2017-11-04T04:52:17.561Z,9.48
2017-11-04T04:53:27.574Z,9.48
2017-11-04T04:54:37.605Z,9.48
2017-11-04T04:55:47.957Z,9.45
2017-11-04T04:56:57.640Z,9.42
2017-11-04T04:58:07.332Z,9.44
2017-11-04T04:59:17.024Z,9.45
2017-11-04T05:00:27.043Z,9.56
2017-11-04T05:01:37.067Z,9.48
2017-11-04T05:02:47.423Z,9.5
2017-11-04T05:03:57.114Z,9.56
2017-11-04T05:05:07.143Z,9.55
2017-11-04T05:06:17.182Z,9.55
2017-11-04T05:07:27.197Z,9.65
2017-11-04T05:08:37.566Z,9.59
2017-11-04T05:09:47.278Z,9.7
2017-11-04T05:10:56.955Z,9.56
2017-11-04T05:12:06.653Z,9.68
2017-11-04T05:13:16.675Z,9.67
2017-11-04T05:14:26.354Z,9.71
2017-11-04T05:15:36.049Z,9.63
2017-11-04T05:16:45.395Z,9.68
2017-11-04T05:17:55.084Z,9.67
2017-11-04T05:19:04.771Z,9.7
2017-11-04T05:20:14.478Z,9.63
2017-11-04T05:21:24.177Z,9.67
2017-11-04T05:22:33.524Z,9.73
2017-11-04T05:23:43.223Z,9.71
2017-11-04T05:24:52.583Z,9.78
2017-11-04T05:26:02.275Z,9.74
2017-11-04T05:27:12.686Z,9.77
2017-11-04T05:28:22.372Z,9.74
2017-11-04T05:29:32.396Z,9.74
2017-11-04T05:30:42.423Z,9.77
2017-11-04T05:31:52.102Z,9.77
2017-11-04T05:33:01.805Z,9.8
2017-11-04T05:34:11.835Z,9.81
2017-11-04T05:35:21.510Z,9.78
2017-11-04T05:36:30.527Z,9.78
2017-11-04T05:37:40.894Z,9.85
2017-11-04T05:38:50.570Z,9.81
2017-11-04T05:40:00.282Z,9.86
2017-11-04T05:41:09.965Z,9.83
2017-11-04T05:42:19.980Z,9.91
2017-11-04T05:43:29.689Z,9.88
2017-11-04T05:44:39.715Z,9.83
2017-11-04T05:45:49.726Z,9.86
2017-11-04T05:46:59.414Z,9.89
2017-11-04T05:48:08.751Z,9.83
2017-11-04T05:49:18.442Z,9.89
2017-11-04T05:50:28.462Z,9.93
2017-11-04T05:51:38.144Z,9.92
2017-11-04T05:52:47.479Z,9.88
2017-11-04T05:53:56.830Z,9.89
2017-11-04T05:55:06.610Z,9.92
2017-11-04T05:56:15.290Z,9.93
2017-11-04T05:57:24.990Z,9.95
2017-11-04T05:58:34.343Z,10.02
2017-11-04T05:59:44.030Z,10.02
2017-11-04T06:00:54.054Z,9.99
2017-11-04T06:02:03.421Z,10.02
2017-11-04T06:03:12.771Z,9.95
2017-11-04T06:04:22.467Z,9.96
2017-11-04T06:05:32.138Z,9.99
2017-11-04T06:06:41.833Z,9.93
2017-11-04T06:07:51.860Z,9.96
2017-11-04T06:09:01.553Z,9.95
2017-11-04T06:10:11.253Z,9.98
2017-11-04T06:11:21.273Z,9.96
2017-11-04T06:12:30.637Z,10.01
2017-11-04T06:13:39.987Z,9.96
2017-11-04T06:14:49.334Z,9.95
2017-11-04T06:15:59.398Z,10.02
2017-11-04T06:17:09.797Z,10.06
2017-11-04T06:18:19.827Z,9.99
2017-11-04T06:19:30.184Z,10.01
2017-11-04T06:20:40.551Z,9.91
2017-11-04T06:21:50.237Z,10.02
2017-11-04T06:22:58.907Z,10.06
2017-11-04T06:24:08.587Z,10.06
2017-11-04T06:25:17.958Z,9.99
2017-11-04T06:26:27.306Z,9.96
2017-11-04T06:27:37.334Z,9.98
2017-11-04T06:28:47.782Z,9.98
2017-11-04T06:29:57.185Z,9.96
2017-11-04T06:31:07.610Z,9.98
2017-11-04T06:32:18.041Z,10.01
2017-11-04T06:33:28.082Z,9.95
2017-11-04T06:34:38.117Z,9.95
2017-11-04T06:35:48.489Z,9.89
2017-11-04T06:36:58.508Z,9.89
2017-11-04T06:38:07.520Z,9.95
2017-11-04T06:39:17.541Z,9.98
2017-11-04T06:40:26.898Z,9.93
2017-11-04T06:41:36.578Z,9.92
2017-11-04T06:42:46.281Z,9.88
2017-11-04T06:43:56.336Z,9.89
2017-11-04T06:45:06.697Z,9.95
2017-11-04T06:46:16.374Z,9.89
2017-11-04T06:47:26.397Z,9.89
2017-11-04T06:48:36.093Z,10.04
2017-11-04T06:49:46.111Z,10.01
2017-11-04T06:50:55.814Z,9.98
2017-11-04T06:52:05.533Z,10.11
2017-11-04T06:53:14.878Z,10.1
2017-11-04T06:54:24.932Z,10.17
2017-11-04T06:55:34.364Z,10.16
2017-11-04T06:56:44.394Z,10.17
2017-11-04T06:57:54.420Z,10.26
2017-11-04T06:59:04.796Z,10.34
2017-11-04T07:00:15.179Z,10.28
2017-11-04T07:01:25.205Z,10.29
2017-11-04T07:02:35.218Z,10.39
2017-11-04T07:03:45.259Z,10.42
2017-11-04T07:04:55.288Z,10.43
2017-11-04T07:06:05.664Z,10.46
2017-11-04T07:07:15.363Z,10.49
2017-11-04T07:08:25.391Z,10.51
2017-11-04T07:09:35.082Z,10.51
2017-11-04T07:10:45.096Z,10.6
2017-11-04T07:11:55.129Z,10.62
2017-11-04T07:13:05.502Z,10.65
2017-11-04T07:14:15.514Z,10.52
2017-11-04T07:15:25.531Z,10.62
2017-11-04T07:16:35.560Z,10.63
2017-11-04T07:17:45.596Z,10.66
2017-11-04T07:18:55.323Z,10.63
2017-11-04T07:20:05.015Z,10.66
2017-11-04T07:21:14.018Z,10.68
2017-11-04T07:22:24.059Z,10.65
2017-11-04T07:23:34.088Z,10.57
2017-11-04T07:24:44.487Z,10.57
2017-11-04T07:25:54.514Z,10.57
2017-11-04T07:27:04.543Z,10.57
2017-11-04T07:28:13.907Z,10.58
2017-11-04T07:29:23.944Z,10.57
2017-11-04T07:30:33.658Z,10.57
2017-11-04T07:31:43.805Z,10.58
2017-11-04T07:32:53.578Z,10.68
2017-11-04T07:34:03.276Z,10.62
2017-11-04T07:35:13.318Z,10.75
2017-11-04T07:36:23.353Z,10.75
2017-11-04T07:37:33.379Z,10.72
2017-11-04T07:38:43.113Z,10.83
2017-11-04T07:39:52.814Z,10.86
2017-11-04T07:41:03.190Z,10.95
2017-11-04T07:42:13.229Z,10.91
2017-11-04T07:43:23.256Z,10.91
2017-11-04T07:44:32.604Z,11.03
2017-11-04T07:45:42.295Z,11.01
2017-11-04T07:46:52.334Z,11.06
2017-11-04T07:48:02.361Z,11.06
2017-11-04T07:49:12.709Z,11.05
2017-11-04T07:50:22.750Z,11.13
2017-11-04T07:51:32.441Z,11.26
2017-11-04T07:52:42.134Z,11.27
2017-11-04T07:53:51.499Z,11.27
2017-11-04T07:55:00.854Z,11.38
2017-11-04T07:56:09.936Z,11.44
2017-11-04T07:57:18.984Z,11.45
2017-11-04T07:58:28.342Z,11.56
2017-11-04T07:59:38.024Z,11.56
2017-11-04T08:00:47.718Z,11.56
2017-11-04T08:01:57.062Z,11.66
2017-11-04T08:03:06.753Z,11.57
2017-11-04T08:04:16.770Z,11.62
2017-11-04T08:05:26.806Z,11.63
2017-11-04T08:06:35.824Z,11.7
2017-11-04T08:07:45.179Z,11.63
2017-11-04T08:08:55.544Z,11.63
2017-11-04T08:10:05.254Z,11.64
2017-11-04T08:11:15.525Z,11.62
2017-11-04T08:12:25.007Z,11.64
2017-11-04T08:13:34.417Z,11.62
2017-11-04T08:14:44.929Z,11.64
2017-11-04T08:15:54.995Z,11.63
2017-11-04T08:17:04.837Z,11.63
2017-11-04T08:18:14.890Z,11.59
2017-11-04T08:19:24.920Z,11.59
2017-11-04T08:20:34.947Z,11.49
2017-11-04T08:21:44.971Z,11.51
2017-11-04T08:22:54.992Z,11.59
2017-11-04T08:24:05.360Z,11.57
2017-11-04T08:25:15.378Z,11.59
2017-11-04T08:26:25.395Z,11.6
2017-11-04T08:27:35.413Z,11.6
2017-11-04T08:28:45.102Z,11.59
2017-11-04T08:29:54.817Z,11.6
2017-11-04T08:31:03.856Z,11.62
2017-11-04T08:32:13.893Z,11.63
2017-11-04T08:33:23.259Z,11.72
2017-11-04T08:34:33.278Z,11.77
2017-11-04T08:35:42.637Z,11.72
2017-11-04T08:36:51.462Z,11.82
2017-11-04T08:38:00.821Z,11.84
2017-11-04T08:39:10.515Z,11.87
2017-11-04T08:40:19.935Z,11.93
2017-11-04T08:41:29.959Z,11.9
2017-11-04T08:42:40.485Z,11.93
2017-11-04T08:43:50.507Z,11.84
2017-11-04T08:45:00.184Z,11.85
2017-11-04T08:46:10.577Z,11.81
2017-11-04T08:47:20.651Z,11.84
2017-11-04T08:48:30.000Z,11.87
2017-11-04T08:49:40.040Z,11.87
2017-11-04T08:50:49.733Z,11.93
2017-11-04T08:51:59.149Z,11.79
2017-11-04T08:53:08.501Z,11.81
2017-11-04T08:54:18.524Z,11.93
2017-11-04T08:55:27.942Z,11.93
2017-11-04T08:56:37.638Z,11.93
2017-11-04T08:57:47.673Z,11.93
2017-11-04T08:58:57.355Z,11.9
2017-11-04T09:00:07.065Z,11.97
2017-11-04T09:01:17.080Z,12.07
2017-11-04T09:02:26.429Z,12.11
2017-11-04T09:03:36.128Z,12.01
2017-11-04T09:04:45.821Z,12.03
2017-11-04T09:05:55.528Z,12.13
2017-11-04T09:07:05.939Z,12.18
2017-11-04T09:08:15.623Z,12.21
2017-11-04T09:09:25.823Z,12.21
2017-11-04T09:10:35.515Z,12.22
2017-11-04T09:11:45.898Z,12.23
2017-11-04T09:12:55.590Z,12.18
2017-11-04T09:14:04.931Z,12.29
2017-11-04T09:15:14.968Z,12.31
2017-11-04T09:16:24.347Z,12.36
2017-11-04T09:17:34.407Z,12.46
2017-11-04T09:18:44.431Z,12.51
2017-11-04T09:19:54.137Z,12.56
2017-11-04T09:21:03.846Z,12.48
2017-11-04T09:22:13.561Z,12.58
2017-11-04T09:23:23.397Z,12.54
2017-11-04T09:24:32.742Z,12.59
2017-11-04T09:25:42.161Z,12.61
2017-11-04T09:26:52.568Z,12.67
2017-11-04T09:28:02.725Z,12.73
2017-11-04T09:29:14.056Z,12.73
2017-11-04T09:30:23.966Z,12.81
2017-11-04T09:31:34.525Z,12.81
2017-11-04T09:32:45.543Z,12.91
2017-11-04T09:33:57.214Z,12.91
2017-11-04T09:35:08.493Z,12.96
2017-11-04T09:36:19.153Z,13.01
2017-11-04T09:37:28.803Z,12.88
2017-11-04T09:38:39.591Z,12.92
2017-11-04T09:39:50.040Z,12.94
2017-11-04T09:41:00.072Z,12.95
2017-11-04T09:42:10.295Z,12.91
2017-11-04T09:43:20.431Z,12.88
2017-11-04T09:44:30.403Z,13.03
2017-11-04T09:45:39.762Z,13.07
2017-11-04T09:46:49.842Z,13.04
2017-11-04T09:47:59.878Z,13.09
2017-11-04T09:49:09.906Z,13.07
2017-11-04T09:50:19.597Z,13.06
2017-11-04T09:51:29.627Z,13.14
2017-11-04T09:52:39.682Z,13.22
2017-11-04T09:53:49.708Z,13.28
2017-11-04T09:54:59.051Z,13.17
2017-11-04T09:56:09.106Z,13.17
2017-11-04T09:57:19.140Z,13.28
2017-11-04T09:58:29.204Z,13.29
2017-11-04T09:59:38.577Z,13.31
2017-11-04T10:00:48.629Z,13.29
2017-11-04T10:01:58.012Z,13.27
2017-11-04T10:03:07.365Z,13.44
2017-11-04T10:04:17.811Z,13.5
2017-11-04T10:05:27.505Z,13.54
2017-11-04T10:06:37.211Z,13.54
2017-11-04T10:07:46.935Z,13.5
2017-11-04T10:08:56.645Z,13.55
2017-11-04T10:10:07.269Z,13.51
2017-11-04T10:11:16.386Z,13.5
2017-11-04T10:12:25.792Z,13.31
2017-11-04T10:13:35.834Z,13.47
2017-11-04T10:14:46.311Z,13.48
2017-11-04T10:15:56.708Z,13.51
2017-11-04T10:17:06.449Z,13.53
2017-11-04T10:18:16.815Z,13.41
2017-11-04T10:19:26.502Z,13.43
2017-11-04T10:20:36.217Z,13.54
2017-11-04T10:21:46.330Z,13.55
2017-11-04T10:22:57.080Z,13.57
2017-11-04T10:24:06.690Z,13.61
2017-11-04T10:25:16.653Z,13.62
2017-11-04T10:26:26.300Z,13.68
2017-11-04T10:27:36.696Z,13.59
2017-11-04T10:28:47.413Z,13.57
2017-11-04T10:29:57.439Z,13.62
2017-11-04T10:31:07.405Z,13.66
2017-11-04T10:32:18.227Z,13.76
2017-11-04T10:33:28.086Z,13.75
2017-11-04T10:34:38.275Z,13.83
2017-11-04T10:35:48.087Z,13.84
2017-11-04T10:36:58.304Z,13.79
2017-11-04T10:38:08.484Z,13.88
2017-11-04T10:39:18.569Z,13.96
2017-11-04T10:40:28.648Z,13.91
2017-11-04T10:41:38.027Z,13.99
2017-11-04T10:42:48.106Z,14.06
2017-11-04T10:43:58.176Z,14.04
2017-11-04T10:45:08.205Z,14.06
2017-11-04T10:46:17.894Z,14.09
2017-11-04T10:47:27.257Z,14.09
2017-11-04T10:48:36.950Z,14.19
2017-11-04T10:49:46.658Z,14.06
2017-11-04T10:50:56.831Z,14.2
2017-11-04T10:52:06.578Z,14.24
2017-11-04T10:53:15.965Z,14.21
2017-11-04T10:54:25.332Z,14.29
2017-11-04T10:55:35.710Z,14.19
2017-11-04T10:56:45.747Z,14.29
2017-11-04T10:57:55.796Z,14.24
2017-11-04T10:59:05.144Z,14.31
2017-11-04T11:00:15.514Z,14.26
2017-11-04T11:01:25.216Z,14.39
2017-11-04T11:02:34.623Z,14.44
2017-11-04T11:03:44.664Z,14.38
2017-11-04T11:04:54.703Z,14.44
2017-11-04T11:06:05.089Z,14.36
2017-11-04T11:07:14.446Z,14.31
2017-11-04T11:08:24.812Z,14.34
2017-11-04T11:09:34.509Z,14.31
2017-11-04T11:10:45.007Z,14.41
2017-11-04T11:11:55.804Z,14.45
2017-11-04T11:13:06.382Z,14.6
2017-11-04T11:14:16.808Z,14.61
2017-11-04T11:15:26.826Z,14.72
2017-11-04T11:16:36.538Z,14.8
2017-11-04T11:17:47.002Z,15
2017-11-04T11:18:56.876Z,14.98
2017-11-04T11:20:06.104Z,15.11
2017-11-04T11:21:16.167Z,15.13
2017-11-04T11:22:26.545Z,15.13
2017-11-04T11:23:36.964Z,15.07
2017-11-04T11:24:46.826Z,15.15
2017-11-04T11:25:56.751Z,15.34
2017-11-04T11:27:07.184Z,15.52
2017-11-04T11:28:17.943Z,15.68
2017-11-04T11:29:28.422Z,15.98
2017-11-04T11:30:38.179Z,16.22
2017-11-04T11:31:48.652Z,16.37
2017-11-04T11:32:59.485Z,16.54
2017-11-04T11:34:10.755Z,16.75
2017-11-04T11:35:20.496Z,16.9
2017-11-04T11:36:30.552Z,17
2017-11-04T11:37:41.237Z,17.32
2017-11-04T11:38:51.745Z,17.47
2017-11-04T11:40:02.085Z,17.7
2017-11-04T11:41:12.616Z,17.63
2017-11-04T11:42:23.722Z,17.6
2017-11-04T11:43:34.681Z,17.43
2017-11-04T11:44:44.702Z,17.21
2017-11-04T11:45:55.042Z,17.14
2017-11-04T11:47:06.477Z,17.07
2017-11-04T11:48:17.300Z,16.99
2017-11-04T11:49:27.030Z,17.02
2017-11-04T11:50:37.394Z,16.96
2017-11-04T11:51:48.041Z,16.81
2017-11-04T11:52:58.969Z,16.84
2017-11-04T11:54:09.078Z,16.84
2017-11-04T11:55:19.266Z,16.81
2017-11-04T11:56:28.904Z,16.84
2017-11-04T11:57:39.632Z,16.87
2017-11-04T11:58:49.709Z,16.84
2017-11-04T11:59:59.739Z,16.87
2017-11-04T12:01:10.334Z,16.81
2017-11-04T12:02:20.630Z,16.75
2017-11-04T12:03:30.632Z,16.77
2017-11-04T12:04:40.922Z,16.75
2017-11-04T12:05:51.045Z,16.7
2017-11-04T12:07:02.058Z,16.75
2017-11-04T12:08:11.479Z,16.82
2017-11-04T12:09:20.908Z,16.84
2017-11-04T12:10:30.604Z,16.82
2017-11-04T12:11:40.640Z,16.81
2017-11-04T12:12:50.724Z,16.91
2017-11-04T12:14:00.082Z,16.84
2017-11-04T12:15:10.441Z,16.96
2017-11-04T12:16:20.228Z,16.95
2017-11-04T12:17:29.920Z,16.95
2017-11-04T12:18:39.713Z,16.98
2017-11-04T12:19:50.177Z,17.07
2017-11-04T12:20:59.903Z,17.12
2017-11-04T12:22:09.944Z,17.15
2017-11-04T12:23:19.444Z,17.22
2017-11-04T12:24:28.843Z,17.21
2017-11-04T12:25:38.925Z,17.32
2017-11-04T12:26:49.252Z,17.32
2017-11-04T12:27:59.066Z,17.27
2017-11-04T12:29:09.448Z,17.32
2017-11-04T12:30:19.964Z,17.3
2017-11-04T12:31:30.040Z,17.32
2017-11-04T12:32:39.915Z,17.22
2017-11-04T12:33:49.058Z,17.22
2017-11-04T12:34:58.770Z,17.25
2017-11-04T12:36:08.840Z,17.22
2017-11-04T12:37:18.224Z,17.2
2017-11-04T12:38:28.076Z,17.17
2017-11-04T12:39:38.361Z,17.2
2017-11-04T12:40:48.369Z,17.21
2017-11-04T12:41:58.683Z,17.24
2017-11-04T12:43:08.558Z,17.32
2017-11-04T12:44:18.257Z,17.32
2017-11-04T12:45:28.298Z,17.3
2017-11-04T12:46:38.150Z,17.22
2017-11-04T12:47:48.333Z,17.22
2017-11-04T12:48:58.417Z,17.2
2017-11-04T12:50:08.190Z,17.35
2017-11-04T12:51:17.876Z,17.22
2017-11-04T12:52:27.235Z,17.33
2017-11-04T12:53:36.949Z,17.35
2017-11-04T12:54:46.741Z,17.3
2017-11-04T12:55:56.937Z,17.18
2017-11-04T12:57:07.402Z,17.27
2017-11-04T12:58:16.822Z,17.27
2017-11-04T12:59:25.835Z,17.25
2017-11-04T13:00:35.902Z,17.28
2017-11-04T13:01:45.925Z,17.46
2017-11-04T13:02:55.284Z,17.42
2017-11-04T13:04:04.640Z,17.47
2017-11-04T13:05:14.040Z,17.45
2017-11-04T13:06:23.436Z,17.57
2017-11-04T13:07:33.125Z,17.46
2017-11-04T13:08:42.492Z,17.47
2017-11-04T13:09:52.529Z,17.47
2017-11-04T13:11:02.312Z,17.47
2017-11-04T13:12:12.670Z,17.54
2017-11-04T13:13:22.746Z,17.49
2017-11-04T13:14:32.540Z,17.46
2017-11-04T13:15:42.573Z,17.47
2017-11-04T13:16:52.698Z,17.35
2017-11-04T13:18:03.067Z,17.38
2017-11-04T13:19:13.479Z,17.45
2017-11-04T13:20:22.874Z,17.42
2017-11-04T13:21:32.910Z,17.36
2017-11-04T13:22:42.942Z,17.36
2017-11-04T13:23:52.645Z,17.38
2017-11-04T13:25:02.685Z,17.33
2017-11-04T13:26:12.375Z,17.47
2017-11-04T13:27:22.389Z,17.46
2017-11-04T13:28:32.079Z,17.47
2017-11-04T13:29:42.109Z,17.54
2017-11-04T13:30:51.125Z,17.63
2017-11-04T13:32:01.477Z,17.53
2017-11-04T13:33:11.171Z,17.53
2017-11-04T13:34:20.879Z,17.55
2017-11-04T13:35:30.579Z,17.62
2017-11-04T13:36:40.606Z,17.53
2017-11-04T13:37:49.684Z,17.6
2017-11-04T13:38:59.708Z,17.62
2017-11-04T13:40:09.746Z,17.49
2017-11-04T13:41:19.785Z,17.42
2017-11-04T13:42:29.503Z,17.46
2017-11-04T13:43:39.273Z,17.45
2017-11-04T13:44:48.966Z,17.51
2017-11-04T13:45:59.027Z,17.46
2017-11-04T13:47:08.458Z,17.51
2017-11-04T13:48:19.007Z,17.53
2017-11-04T13:49:30.660Z,17.49
2017-11-04T13:50:40.838Z,17.57
2017-11-04T13:51:51.287Z,17.63
2017-11-04T13:53:01.063Z,17.68
2017-11-04T13:54:10.784Z,17.73
2017-11-04T13:55:20.178Z,17.76
2017-11-04T13:56:30.556Z,17.7
2017-11-04T13:57:40.296Z,17.73
2017-11-04T13:58:50.349Z,17.73
2017-11-04T14:00:00.740Z,17.73
2017-11-04T14:01:10.776Z,17.76
2017-11-04T14:02:19.810Z,17.74
2017-11-04T14:03:29.530Z,17.8
2017-11-04T14:04:39.207Z,17.8
2017-11-04T14:05:48.899Z,17.84
2017-11-04T14:06:58.927Z,17.83
2017-11-04T14:08:08.294Z,17.89
2017-11-04T14:09:18.667Z,17.92
2017-11-04T14:10:29.043Z,17.86
2017-11-04T14:11:38.068Z,17.99
2017-11-04T14:12:47.415Z,17.96
2017-11-04T14:13:57.160Z,17.99
2017-11-04T14:15:06.898Z,17.96
2017-11-04T14:16:16.861Z,17.96
2017-11-04T14:17:27.352Z,17.94
2017-11-04T14:18:37.554Z,17.94
2017-11-04T14:19:47.627Z,17.98
2017-11-04T14:20:57.733Z,17.83
2017-11-04T14:22:07.881Z,17.96
2017-11-04T14:23:18.457Z,17.91
2017-11-04T14:24:28.944Z,17.83
2017-11-04T14:25:38.636Z,17.87
2017-11-04T14:26:47.749Z,17.87
2017-11-04T14:27:57.457Z,17.76
2017-11-04T14:29:07.500Z,17.68
2017-11-04T14:30:17.206Z,17.68
2017-11-04T14:31:27.567Z,17.57
2017-11-04T14:32:37.280Z,17.6
2017-11-04T14:33:46.631Z,17.47
2017-11-04T14:34:56.650Z,17.3
2017-11-04T14:36:06.702Z,17.21
2017-11-04T14:37:15.763Z,17.17
2017-11-04T14:38:25.504Z,16.98
2017-11-04T14:39:35.875Z,16.9
2017-11-04T14:40:45.247Z,16.81
2017-11-04T14:41:55.280Z,16.77
2017-11-04T14:43:05.360Z,16.72
2017-11-04T14:44:15.429Z,16.51
2017-11-04T14:45:25.136Z,16.5
2017-11-04T14:46:35.430Z,16.54
2017-11-04T14:47:46.517Z,16.55
2017-11-04T14:48:57.295Z,16.42
2017-11-04T14:50:07.052Z,16.42
2017-11-04T14:51:17.145Z,16.34
2017-11-04T14:52:27.201Z,16.36
2017-11-04T14:53:36.966Z,16.41
2017-11-04T14:54:47.006Z,16.33
2017-11-04T14:55:56.724Z,16.34
2017-11-04T14:57:07.079Z,16.3
2017-11-04T14:58:16.872Z,16.26
2017-11-04T14:59:26.236Z,16.3
2017-11-04T15:00:36.292Z,16.27
2017-11-04T15:01:46.001Z,16.29
2017-11-04T15:02:56.055Z,16.41
2017-11-04T15:04:06.581Z,16.33
2017-11-04T15:05:15.733Z,16.34
2017-11-04T15:06:25.093Z,16.37
2017-11-04T15:07:35.134Z,16.37
2017-11-04T15:08:44.507Z,16.41
2017-11-04T15:09:54.874Z,16.36
2017-11-04T15:11:04.239Z,16.29
2017-11-04T15:12:14.610Z,16.29
2017-11-04T15:13:24.660Z,16.23
2017-11-04T15:14:34.711Z,16.3
2017-11-04T15:15:44.404Z,16.18
2017-11-04T15:16:54.451Z,16.26